Time;durP1;ratioP1;P1;durP2;ratioP2;P2;SDS_P1;SDS_P2;PMS_P1;PMS_P2;Temp;Humidity;BMP_temperature;BMP_pressure;BME280_temperature;BME280_humidity;BME280_pressure;Samples;Min_cycle;Max_cycle;Signal;HPM_P1;HPM_P2
2022/08/06 00:02:24;;;;;;;0.00;0.00;;;21.30;99.90;;;;;;5082421;28;20041;-78
2022/08/06 00:04:51;;;;;;;0.00;0.00;;;21.30;99.90;;;;;;5092731;28;20036;-78
2022/08/06 00:07:17;;;;;;;0.00;0.00;;;21.20;99.90;;;;;;5079341;28;20028;-79
2022/08/06 00:09:44;;;;;;;0.00;0.00;;;21.20;99.90;;;;;;5093766;28;20486;-78
2022/08/06 00:12:10;;;;;;;1.25;1.25;;;21.20;99.90;;;;;;5084751;28;20037;-80
2022/08/06 00:14:36;;;;;;;0.00;0.00;;;21.30;99.90;;;;;;5083139;28;20032;-79
2022/08/06 00:17:03;;;;;;;0.00;0.00;;;21.30;99.90;;;;;;5083144;28;20050;-78
2022/08/06 00:19:30;;;;;;;0.10;0.10;;;21.30;99.90;;;;;;5100004;28;20470;-78
2022/08/06 00:21:56;;;;;;;0.32;0.17;;;21.30;99.90;;;;;;5093235;28;20090;-78
2022/08/06 00:24:22;;;;;;;1.08;1.05;;;21.30;99.90;;;;;;5110807;28;20038;-78
2022/08/06 00:26:49;;;;;;;0.03;0.03;;;21.30;99.90;;;;;;5105139;28;20046;-78
2022/08/06 00:29:15;;;;;;;0.10;0.10;;;21.30;99.90;;;;;;5112165;28;20036;-78
2022/08/06 00:31:41;;;;;;;0.00;0.00;;;21.40;99.90;;;;;;5094132;28;20032;-78
2022/08/06 00:34:08;;;;;;;0.00;0.00;;;21.40;99.90;;;;;;5099319;28;20482;-78
2022/08/06 00:36:34;;;;;;;0.00;0.00;;;21.60;99.90;;;;;;5087080;28;20032;-78
2022/08/06 00:39:04;;;;;;;2.92;1.88;;;21.60;99.90;;;;;;5093431;28;20538;-78
2022/08/06 00:41:31;;;;;;;0.47;0.47;;;21.80;99.90;;;;;;5086112;28;20039;-78
2022/08/06 00:43:59;;;;;;;1.77;1.67;;;21.80;99.90;;;;;;5083419;28;20455;-78
2022/08/06 00:46:25;;;;;;;0.00;0.00;;;21.70;99.90;;;;;;5088326;28;20075;-78
2022/08/06 00:48:52;;;;;;;0.47;0.22;;;21.90;99.90;;;;;;5089268;28;20032;-78
2022/08/06 00:51:18;;;;;;;3.63;0.47;;;22.00;99.90;;;;;;5085030;28;20077;-78
2022/08/06 00:53:45;;;;;;;0.47;0.35;;;22.00;99.90;;;;;;5094642;28;20466;-78
2022/08/06 00:56:11;;;;;;;10.88;0.15;;;22.00;99.90;;;;;;5087395;28;20120;-78
2022/08/06 00:58:38;;;;;;;0.00;0.00;;;22.30;99.90;;;;;;5085995;28;20047;-78
2022/08/06 01:01:04;;;;;;;0.00;0.00;;;22.70;99.90;;;;;;5089394;28;20063;-78
2022/08/06 01:03:30;;;;;;;0.10;0.10;;;23.00;99.90;;;;;;5108800;28;20036;-77
2022/08/06 01:05:58;;;;;;;0.00;0.00;;;23.40;99.90;;;;;;5089414;28;20512;-77
2022/08/06 01:08:24;;;;;;;0.00;0.00;;;23.90;99.90;;;;;;5092440;28;20024;-77
2022/08/06 01:10:50;;;;;;;0.00;0.00;;;24.00;99.90;;;;;;5095774;28;20454;-78
2022/08/06 01:13:16;;;;;;;0.80;0.25;;;24.20;99.90;;;;;;5093685;28;20394;-78
2022/08/06 01:15:51;;;;;;;0.38;0.08;;;24.30;99.90;;;;;;5085847;28;20074;-77
2022/08/06 01:18:29;;;;;;;0.00;0.00;;;24.10;99.90;;;;;;5093906;28;20036;-78
2022/08/06 01:21:08;;;;;;;0.20;0.20;;;24.10;99.90;;;;;;5092536;28;20047;-77
2022/08/06 01:23:45;;;;;;;0.00;0.00;;;24.10;99.90;;;;;;5084749;28;20029;-78
2022/08/06 01:26:14;;;;;;;4.20;3.20;;;23.90;99.90;;;;;;5086486;28;20094;-77
2022/08/06 01:28:50;;;;;;;0.05;0.05;;;23.70;99.90;;;;;;5086381;28;20105;-79
2022/08/06 01:32:00;;;;;;;0.00;0.00;;;23.60;99.90;;;;;;5086283;28;20023;-77
2022/08/06 01:34:41;;;;;;;0.15;0.00;;;23.60;99.90;;;;;;5031951;28;20036;-77
2022/08/06 01:37:30;;;;;;;0.30;0.08;;;23.70;99.90;;;;;;5098393;28;20028;-78
2022/08/06 01:40:01;;;;;;;0.00;0.00;;;23.50;99.90;;;;;;5094529;28;20107;-78
2022/08/06 01:42:31;;;;;;;0.00;0.00;;;23.40;99.90;;;;;;5090360;28;20031;-79
2022/08/06 01:45:03;;;;;;;2.55;0.30;;;23.50;99.90;;;;;;5083081;28;20040;-77
2022/08/06 01:47:34;;;;;;;0.00;0.00;;;23.70;99.90;;;;;;5082840;28;20356;-79
2022/08/06 01:50:06;;;;;;;0.00;0.00;;;23.80;99.90;;;;;;5086596;28;20029;-78
2022/08/06 01:52:38;;;;;;;0.00;0.00;;;23.80;99.90;;;;;;5094575;28;20374;-78
2022/08/06 01:55:11;;;;;;;0.00;0.00;;;23.90;99.90;;;;;;5091618;28;20115;-78
2022/08/06 01:57:40;;;;;;;0.00;0.00;;;24.00;99.90;;;;;;5100703;28;20062;-78
2022/08/06 02:00:06;;;;;;;0.00;0.00;;;24.50;99.90;;;;;;5086636;28;20036;-77
2022/08/06 02:02:37;;;;;;;0.00;0.00;;;24.80;99.90;;;;;;5079734;28;20031;-78
2022/08/06 02:05:09;;;;;;;0.17;0.17;;;24.80;99.90;;;;;;5081061;28;20032;-78
2022/08/06 02:07:46;;;;;;;0.22;0.10;;;24.80;99.90;;;;;;5094476;28;20028;-79
2022/08/06 02:10:17;;;;;;;0.10;0.10;;;25.10;99.90;;;;;;5079617;28;20044;-78
2022/08/06 02:12:46;;;;;;;0.10;0.10;;;25.50;99.90;;;;;;5084919;28;20029;-78
2022/08/06 02:15:26;;;;;;;1.08;1.08;;;26.00;99.90;;;;;;5088941;28;20032;-79
2022/08/06 02:17:57;;;;;;;2.05;0.80;;;26.40;99.90;;;;;;5087539;28;20042;-79
2022/08/06 02:20:33;;;;;;;0.00;0.00;;;26.80;99.90;;;;;;5091317;28;20479;-79
2022/08/06 02:23:04;;;;;;;0.00;0.00;;;27.00;98.70;;;;;;5090128;28;20082;-78
2022/08/06 02:25:32;;;;;;;0.13;0.08;;;27.40;96.40;;;;;;5084893;28;21118;-78
2022/08/06 02:28:00;;;;;;;3.30;0.98;;;27.50;94.10;;;;;;5085453;28;20033;-79
2022/08/06 02:30:33;;;;;;;0.32;0.32;;;27.50;93.80;;;;;;5083309;28;20540;-78
2022/08/06 02:32:59;;;;;;;1.25;0.75;;;27.30;94.50;;;;;;5084757;28;20059;-78
2022/08/06 02:35:27;;;;;;;1.02;1.02;;;27.10;95.50;;;;;;5091902;28;20383;-77
2022/08/06 02:38:03;;;;;;;0.30;0.13;;;27.20;95.70;;;;;;5091702;28;20514;-78
2022/08/06 02:40:40;;;;;;;0.00;0.00;;;26.90;97.00;;;;;;5093621;28;20059;-80
2022/08/06 02:43:15;;;;;;;0.20;0.20;;;27.30;96.50;;;;;;5093491;28;20114;-78
2022/08/06 02:45:47;;;;;;;0.45;0.45;;;27.70;94.50;;;;;;5090512;28;20037;-79
2022/08/06 02:48:20;;;;;;;1.17;0.52;;;27.70;94.00;;;;;;5084879;28;20029;-79
2022/08/06 02:50:49;;;;;;;0.05;0.05;;;27.90;92.80;;;;;;5080513;28;20036;-77
2022/08/06 02:53:19;;;;;;;0.00;0.00;;;27.90;91.60;;;;;;5089739;28;20070;-80
2022/08/06 02:55:49;;;;;;;0.00;0.00;;;28.00;91.80;;;;;;5087223;28;20024;-78
2022/08/06 02:58:26;;;;;;;0.30;0.30;;;27.80;90.90;;;;;;5087561;28;20046;-79
2022/08/06 03:00:54;;;;;;;0.70;0.70;;;28.00;90.20;;;;;;5077083;28;20128;-78
2022/08/06 03:03:23;;;;;;;0.10;0.10;;;28.10;89.00;;;;;;5084318;28;20429;-78
2022/08/06 03:05:52;;;;;;;0.00;0.00;;;28.40;85.90;;;;;;5085089;28;20056;-79
2022/08/06 03:08:22;;;;;;;0.00;0.00;;;28.50;84.30;;;;;;5081884;28;20025;-78
2022/08/06 03:10:54;;;;;;;0.08;0.08;;;28.50;83.70;;;;;;5081479;28;20028;-79
2022/08/06 03:13:22;;;;;;;0.00;0.00;;;28.70;82.50;;;;;;5084467;28;20072;-79
2022/08/06 03:15:50;;;;;;;0.10;0.10;;;28.90;80.40;;;;;;5091771;28;20530;-78
2022/08/06 03:18:21;;;;;;;0.13;0.10;;;28.70;79.70;;;;;;5094112;28;20048;-79
2022/08/06 03:20:48;;;;;;;0.00;0.00;;;29.30;77.60;;;;;;5083621;28;20154;-81
2022/08/06 03:23:15;;;;;;;0.65;0.45;;;29.60;75.50;;;;;;5085246;28;20039;-79
2022/08/06 03:25:44;;;;;;;0.00;0.00;;;29.80;73.30;;;;;;5091208;28;20082;-79
2022/08/06 03:28:12;;;;;;;0.00;0.00;;;28.60;77.50;;;;;;5083023;28;20422;-78
2022/08/06 03:30:39;;;;;;;0.00;0.00;;;28.90;76.40;;;;;;5091422;28;20028;-79
2022/08/06 03:33:12;;;;;;;0.85;0.73;;;29.30;74.40;;;;;;5085253;28;20032;-79
2022/08/06 03:35:39;;;;;;;0.00;0.00;;;28.20;76.20;;;;;;5088174;28;20418;-79
2022/08/06 03:38:08;;;;;;;0.00;0.00;;;27.10;87.40;;;;;;5084937;28;20036;-78
2022/08/06 03:40:39;;;;;;;0.10;0.10;;;27.20;85.50;;;;;;5090813;28;20032;-78
2022/08/06 03:43:05;;;;;;;3.13;3.03;;;27.10;87.00;;;;;;5087198;28;20036;-78
2022/08/06 03:45:37;;;;;;;0.32;0.32;;;26.90;88.50;;;;;;5088826;28;20044;-78
2022/08/06 03:48:05;;;;;;;0.00;0.00;;;26.00;92.70;;;;;;5088183;28;20031;-77
2022/08/06 03:50:36;;;;;;;0.40;0.25;;;25.80;97.80;;;;;;5092524;28;20343;-79
2022/08/06 03:53:07;;;;;;;0.57;0.38;;;25.10;99.90;;;;;;5089982;28;20024;-77
2022/08/06 03:55:36;;;;;;;0.00;0.00;;;25.30;99.90;;;;;;5087129;28;20028;-79
2022/08/06 03:58:06;;;;;;;0.00;0.00;;;25.30;99.90;;;;;;5086716;28;20084;-77
2022/08/06 04:00:40;;;;;;;7.03;6.60;;;25.30;99.90;;;;;;5086681;28;20086;-78
2022/08/06 04:03:08;;;;;;;0.00;0.00;;;25.10;99.90;;;;;;5065190;28;20060;-78
2022/08/06 04:05:36;;;;;;;0.00;0.00;;;25.30;99.90;;;;;;5087520;28;20517;-78
2022/08/06 04:08:06;;;;;;;0.00;0.00;;;25.30;99.90;;;;;;5086024;28;20028;-77
2022/08/06 04:10:43;;;;;;;0.00;0.00;;;25.10;99.90;;;;;;5089218;28;20393;-79
2022/08/06 04:13:13;;;;;;;0.00;0.00;;;25.30;99.90;;;;;;5089928;28;20028;-79
2022/08/06 04:15:39;;;;;;;0.10;0.10;;;25.40;99.90;;;;;;5090190;28;20384;-78
2022/08/06 04:18:12;;;;;;;0.00;0.00;;;24.90;99.90;;;;;;5087024;28;20550;-79
2022/08/06 04:20:42;;;;;;;0.00;0.00;;;24.90;99.90;;;;;;5085605;28;20731;-79
2022/08/06 04:23:09;;;;;;;0.00;0.00;;;25.20;99.90;;;;;;5086391;28;20127;-79
2022/08/06 04:25:49;;;;;;;0.15;0.13;;;25.60;99.90;;;;;;5084970;28;20119;-78
2022/08/06 04:28:18;;;;;;;0.10;0.10;;;25.40;99.90;;;;;;5084746;28;20024;-78
2022/08/06 04:30:46;;;;;;;0.00;0.00;;;25.60;99.90;;;;;;5087042;28;20059;-78
2022/08/06 04:33:14;;;;;;;0.05;0.05;;;25.90;99.90;;;;;;5088257;28;20093;-78
2022/08/06 04:35:41;;;;;;;0.00;0.00;;;25.50;99.90;;;;;;5088815;28;20032;-79
2022/08/06 04:38:08;;;;;;;1.83;1.08;;;25.60;99.90;;;;;;5085389;28;20123;-79
2022/08/06 04:40:37;;;;;;;8.70;2.33;;;25.90;99.90;;;;;;5091906;28;20383;-78
2022/08/06 04:43:11;;;;;;;0.05;0.05;;;25.60;99.90;;;;;;5090511;28;20035;-78
2022/08/06 04:45:40;;;;;;;0.03;0.03;;;25.10;99.90;;;;;;5085526;28;20032;-78
2022/08/06 04:48:11;;;;;;;0.75;0.20;;;25.00;99.90;;;;;;5088824;28;20032;-79
2022/08/06 04:50:38;;;;;;;0.00;0.00;;;25.50;99.90;;;;;;5086541;28;20025;-79
2022/08/06 04:53:10;;;;;;;0.00;0.00;;;25.80;99.90;;;;;;5093111;28;20513;-80
2022/08/06 04:55:37;;;;;;;0.47;0.47;;;25.90;99.90;;;;;;5092131;28;20401;-80
2022/08/06 04:58:05;;;;;;;2.75;0.55;;;26.50;99.90;;;;;;5084318;28;20056;-79
2022/08/06 05:00:33;;;;;;;0.00;0.00;;;27.00;96.80;;;;;;5087024;28;20032;-80
2022/08/06 05:02:59;;;;;;;0.00;0.00;;;26.90;96.60;;;;;;5082216;28;20414;-79
2022/08/06 05:05:27;;;;;;;0.77;0.77;;;26.70;98.30;;;;;;5094224;28;20051;-78
2022/08/06 05:07:55;;;;;;;0.00;0.00;;;26.90;99.90;;;;;;5099161;28;20024;-81
2022/08/06 05:10:26;;;;;;;0.20;0.20;;;26.00;99.90;;;;;;5076960;28;20107;-81
2022/08/06 05:12:56;;;;;;;0.00;0.00;;;26.20;99.90;;;;;;5092094;28;20024;-77
2022/08/06 05:15:29;;;;;;;2.55;0.95;;;26.30;99.90;;;;;;5072367;28;20036;-80
2022/08/06 05:18:10;;;;;;;2.35;0.75;;;26.80;99.90;;;;;;5074053;28;20044;-79
2022/08/06 05:20:40;;;;;;;0.00;0.00;;;26.30;99.90;;;;;;5086148;28;20539;-78
2022/08/06 05:23:29;;;;;;;3.30;1.60;;;25.90;99.90;;;;;;5089880;28;20065;-82
2022/08/06 05:25:55;;;;;;;2.45;1.20;;;25.90;99.90;;;;;;5067492;28;20063;-80
2022/08/06 05:28:21;;;;;;;2.65;1.95;;;25.90;99.90;;;;;;5089122;28;20085;-79
2022/08/06 05:30:50;;;;;;;0.98;0.98;;;25.90;99.90;;;;;;5087152;28;20732;-79
2022/08/06 05:33:30;;;;;;;2.15;1.95;;;25.60;99.90;;;;;;5084101;28;20037;-79
2022/08/06 05:35:58;;;;;;;1.17;0.73;;;25.10;99.90;;;;;;5094158;28;20101;-79
2022/08/06 05:38:26;;;;;;;0.35;0.35;;;25.30;99.90;;;;;;5092362;28;20040;-78
2022/08/06 05:40:53;;;;;;;2.80;0.68;;;24.80;99.90;;;;;;5091869;28;20062;-77
2022/08/06 05:43:20;;;;;;;3.00;1.17;;;25.00;99.90;;;;;;5087317;28;20516;-78
2022/08/06 05:45:48;;;;;;;10.75;3.20;;;25.30;99.90;;;;;;5094080;28;20047;-79
2022/08/06 05:48:18;;;;;;;1.80;1.23;;;25.40;99.90;;;;;;5094409;28;20435;-78
2022/08/06 05:50:49;;;;;;;2.88;2.22;;;25.50;99.90;;;;;;5089207;28;20028;-79
2022/08/06 05:53:25;;;;;;;0.00;0.00;;;25.50;99.90;;;;;;5095147;28;20035;-79
2022/08/06 05:55:59;;;;;;;0.38;0.38;;;25.50;99.90;;;;;;5086717;28;20041;-79
2022/08/06 05:59:06;;;;;;;1.50;1.40;;;25.60;99.90;;;;;;5087523;28;20036;-78
2022/08/06 06:01:35;;;;;;;0.00;0.00;;;25.90;99.90;;;;;;5072377;28;20039;-78
2022/08/06 06:04:02;;;;;;;1.10;0.30;;;26.10;99.90;;;;;;5082059;28;20135;-79
2022/08/06 06:06:29;;;;;;;2.08;1.95;;;26.30;99.90;;;;;;5091288;28;20064;-79
2022/08/06 06:08:56;;;;;;;1.48;1.13;;;25.90;99.90;;;;;;5088648;28;20082;-79
2022/08/06 06:11:23;;;;;;;3.30;3.03;;;26.00;99.90;;;;;;5089113;28;20043;-79
2022/08/06 06:13:50;;;;;;;0.20;0.20;;;26.00;99.90;;;;;;5091803;28;20028;-79
2022/08/06 06:16:42;;;;;;;1.15;0.93;;;26.00;99.90;;;;;;5089558;28;20364;-80
2022/08/06 06:19:51;;;;;;;8.30;1.73;;;25.90;99.90;;;;;;5079050;28;20031;-79
2022/08/06 06:22:35;;;;;;;1.67;1.15;;;26.30;99.90;;;;;;5019432;28;20311;-80
2022/08/06 06:25:21;;;;;;;2.55;2.33;;;26.50;99.90;;;;;;5069813;28;20048;-81
2022/08/06 06:27:59;;;;;;;0.00;0.00;;;26.20;99.90;;;;;;5093623;28;20031;-80
2022/08/06 06:30:53;;;;;;;3.72;1.90;;;26.10;99.90;;;;;;5094908;28;20032;-79
2022/08/06 06:33:42;;;;;;;5.25;3.75;;;26.40;99.90;;;;;;5089386;28;20020;-79
2022/08/06 06:36:31;;;;;;;0.00;0.00;;;26.70;99.90;;;;;;5089119;28;20151;-81
2022/08/06 06:39:10;;;;;;;3.30;1.95;;;26.70;99.90;;;;;;5088090;28;20038;-80
2022/08/06 06:41:36;;;;;;;1.15;0.80;;;26.90;99.90;;;;;;5085024;28;20119;-79
2022/08/06 06:44:02;;;;;;;7.60;3.38;;;27.10;99.90;;;;;;5089571;28;20089;-79
2022/08/06 06:46:46;;;;;;;0.88;0.43;;;26.80;99.90;;;;;;5085340;28;20036;-80
2022/08/06 06:49:29;;;;;;;1.80;0.95;;;26.80;99.90;;;;;;5086363;28;20024;-81
2022/08/06 06:52:22;;;;;;;3.45;2.35;;;26.90;99.90;;;;;;5088809;28;20043;-79
2022/08/06 06:54:57;;;;;;;4.50;1.65;;;27.30;99.90;;;;;;5081778;28;20484;-81
2022/08/06 06:57:34;;;;;;;7.05;1.60;;;27.40;99.90;;;;;;5090627;28;20351;-79
2022/08/06 07:00:03;;;;;;;1.40;0.95;;;27.80;97.90;;;;;;5089818;28;20442;-80
2022/08/06 07:02:34;;;;;;;0.20;0.10;;;27.90;96.00;;;;;;5086792;28;20542;-79
2022/08/06 07:05:03;;;;;;;0.10;0.10;;;27.90;91.50;;;;;;5092356;28;20068;-79
2022/08/06 07:07:35;;;;;;;3.22;2.00;;;28.00;85.50;;;;;;5093682;28;20532;-81
2022/08/06 07:10:03;;;;;;;3.33;0.98;;;28.10;80.30;;;;;;5090032;28;20127;-80
2022/08/06 07:12:32;;;;;;;0.95;0.88;;;27.90;80.40;;;;;;5090197;28;20031;-78
2022/08/06 07:15:00;;;;;;;1.83;0.90;;;27.90;81.70;;;;;;5092222;28;20059;-81
2022/08/06 07:17:29;;;;;;;2.88;2.30;;;28.10;80.10;;;;;;5087128;28;20128;-79
2022/08/06 07:20:01;;;;;;;2.00;1.25;;;28.30;76.80;;;;;;5088738;28;20510;-80
2022/08/06 07:22:28;;;;;;;6.30;1.58;;;28.40;74.20;;;;;;5093553;28;20039;-80
2022/08/06 07:25:00;;;;;;;0.63;0.63;;;28.50;70.40;;;;;;5093099;28;20047;-80
2022/08/06 07:27:32;;;;;;;0.52;0.52;;;28.70;73.10;;;;;;5092065;28;20031;-80
2022/08/06 07:29:59;;;;;;;0.60;0.60;;;28.90;65.80;;;;;;5089129;28;20056;-80
2022/08/06 07:32:27;;;;;;;1.17;0.60;;;28.90;68.80;;;;;;5089503;28;20043;-80
2022/08/06 07:34:53;;;;;;;4.35;3.83;;;29.10;69.40;;;;;;5091573;28;20167;-80
2022/08/06 07:37:21;;;;;;;0.88;0.47;;;29.20;67.00;;;;;;5092345;28;20028;-78
2022/08/06 07:39:49;;;;;;;0.00;0.00;;;29.00;64.60;;;;;;5081202;28;20098;-80
2022/08/06 07:42:17;;;;;;;0.50;0.50;;;28.80;63.10;;;;;;5064842;28;20033;-79
2022/08/06 07:44:48;;;;;;;1.98;1.20;;;28.80;62.60;;;;;;5092977;28;20048;-80
2022/08/06 07:47:19;;;;;;;1.02;0.60;;;29.20;62.80;;;;;;5091365;28;20036;-80
2022/08/06 07:49:56;;;;;;;0.47;0.43;;;29.30;62.20;;;;;;5087879;28;20119;-78
2022/08/06 07:52:23;;;;;;;0.03;0.00;;;29.50;60.90;;;;;;5088212;28;20088;-78
2022/08/06 07:54:50;;;;;;;3.42;1.73;;;29.60;59.50;;;;;;5090549;28;20032;-79
2022/08/06 07:57:17;;;;;;;1.27;1.15;;;29.70;60.10;;;;;;5088392;28;20031;-79
2022/08/06 07:59:44;;;;;;;0.50;0.50;;;29.50;60.20;;;;;;5087113;28;20367;-80
2022/08/06 08:02:11;;;;;;;0.22;0.22;;;29.50;61.50;;;;;;5086267;28;20043;-78
2022/08/06 08:07:24;;;;;;;0.00;0.00;;;29.80;61.00;;;;;;5086664;28;20051;-78
2022/08/06 08:09:52;;;;;;;0.00;0.00;;;30.10;60.00;;;;;;5081080;28;20025;-79
2022/08/06 08:12:19;;;;;;;0.00;0.00;;;30.50;58.70;;;;;;5085980;28;20032;-79
2022/08/06 08:14:47;;;;;;;0.93;0.68;;;30.90;57.10;;;;;;5085808;28;20036;-78
2022/08/06 08:17:15;;;;;;;0.00;0.00;;;31.00;55.60;;;;;;5084511;28;20031;-78
2022/08/06 08:19:41;;;;;;;0.00;0.00;;;30.70;55.30;;;;;;5084117;28;20036;-79
2022/08/06 08:22:15;;;;;;;0.10;0.10;;;30.70;55.00;;;;;;5082556;28;20093;-79
2022/08/06 08:24:44;;;;;;;0.80;0.73;;;30.80;54.80;;;;;;5085050;28;20040;-79
2022/08/06 08:27:11;;;;;;;0.30;0.20;;;30.90;53.30;;;;;;5077994;28;20478;-79
2022/08/06 08:29:38;;;;;;;2.25;0.57;;;30.70;54.20;;;;;;5083311;28;20060;-78
2022/08/06 08:32:06;;;;;;;0.00;0.00;;;30.80;52.50;;;;;;5084042;28;20108;-79
2022/08/06 08:34:32;;;;;;;0.20;0.20;;;30.80;53.00;;;;;;5085202;28;20481;-78
2022/08/06 08:36:59;;;;;;;0.03;0.03;;;30.80;53.80;;;;;;5089416;28;20432;-79
2022/08/06 08:39:27;;;;;;;0.00;0.00;;;31.00;53.40;;;;;;5087312;28;20773;-78
2022/08/06 08:42:08;;;;;;;0.00;0.00;;;31.20;52.60;;;;;;5083294;28;20097;-79
2022/08/06 08:44:34;;;;;;;0.00;0.00;;;31.20;51.70;;;;;;5088944;28;20072;-79
2022/08/06 08:47:02;;;;;;;0.00;0.00;;;31.40;48.70;;;;;;5081542;28;20036;-80
2022/08/06 08:49:51;;;;;;;5.68;0.20;;;31.30;47.50;;;;;;5090498;28;20363;-78
2022/08/06 08:52:22;;;;;;;0.10;0.10;;;31.40;47.40;;;;;;5075522;28;20475;-79
2022/08/06 08:54:54;;;;;;;0.00;0.00;;;31.10;47.50;;;;;;5071207;28;20049;-79
2022/08/06 08:57:22;;;;;;;0.00;0.00;;;31.30;45.90;;;;;;5089347;28;20044;-80
2022/08/06 08:59:49;;;;;;;0.00;0.00;;;31.30;44.50;;;;;;5088743;28;20116;-79
2022/08/06 09:02:15;;;;;;;0.00;0.00;;;31.30;44.90;;;;;;5088462;28;20496;-79
2022/08/06 09:04:42;;;;;;;0.45;0.45;;;31.30;46.40;;;;;;5091086;28;20405;-79
2022/08/06 09:07:09;;;;;;;1.20;1.10;;;31.20;42.80;;;;;;5088360;28;20115;-78
2022/08/06 09:09:38;;;;;;;0.30;0.30;;;31.40;43.40;;;;;;5085662;28;20035;-78
2022/08/06 09:12:05;;;;;;;0.88;0.77;;;31.20;47.20;;;;;;5085024;28;20028;-78
2022/08/06 09:14:31;;;;;;;0.10;0.10;;;31.30;44.80;;;;;;5092431;28;20024;-79
2022/08/06 09:17:01;;;;;;;0.03;0.03;;;31.20;40.10;;;;;;5090852;28;20799;-79
2022/08/06 09:19:28;;;;;;;1.13;1.08;;;31.20;40.20;;;;;;5086820;28;20032;-78
2022/08/06 09:21:59;;;;;;;0.00;0.00;;;31.20;36.10;;;;;;5086110;28;20253;-78
2022/08/06 09:24:26;;;;;;;0.15;0.15;;;31.20;37.90;;;;;;5088619;28;20474;-78
2022/08/06 09:27:12;;;;;;;0.10;0.10;;;31.30;38.30;;;;;;5089766;28;20041;-78
2022/08/06 09:30:00;;;;;;;0.03;0.03;;;31.40;38.00;;;;;;5090073;28;20082;-78
2022/08/06 09:32:43;;;;;;;0.00;0.00;;;31.50;39.20;;;;;;5089610;28;20035;-78
2022/08/06 09:35:20;;;;;;;0.20;0.20;;;31.50;39.80;;;;;;5090085;28;20036;-78
2022/08/06 09:37:47;;;;;;;0.52;0.52;;;31.50;41.80;;;;;;5079920;28;20041;-78
2022/08/06 09:40:18;;;;;;;0.38;0.38;;;31.40;41.30;;;;;;5083027;28;20494;-79
2022/08/06 09:42:50;;;;;;;0.55;0.55;;;31.30;40.50;;;;;;5090762;28;20494;-79
2022/08/06 09:45:19;;;;;;;2.00;0.17;;;31.30;40.60;;;;;;5091032;28;20048;-79
2022/08/06 09:47:46;;;;;;;0.00;0.00;;;31.40;41.50;;;;;;5084934;28;20020;-79
2022/08/06 09:50:12;;;;;;;0.77;0.75;;;31.40;41.20;;;;;;5088640;28;20031;-79
2022/08/06 09:52:38;;;;;;;0.50;0.20;;;31.40;41.80;;;;;;5083075;28;20845;-80
2022/08/06 09:55:05;;;;;;;0.90;0.90;;;31.30;41.30;;;;;;5087623;28;20417;-79
2022/08/06 09:57:44;;;;;;;0.20;0.15;;;31.10;41.80;;;;;;5074713;28;20040;-79
2022/08/06 10:00:11;;;;;;;0.43;0.43;;;31.10;42.70;;;;;;5072323;28;20040;-79
2022/08/06 10:02:38;;;;;;;0.35;0.17;;;31.00;43.70;;;;;;5084311;28;20032;-78
2022/08/06 10:05:13;;;;;;;0.47;0.47;;;31.10;41.00;;;;;;5087885;28;20064;-80
2022/08/06 10:07:39;;;;;;;0.80;0.45;;;30.80;38.80;;;;;;5086539;28;20044;-79
2022/08/06 10:10:06;;;;;;;0.60;0.60;;;30.80;39.40;;;;;;5085452;28;20036;-80
2022/08/06 10:12:32;;;;;;;0.00;0.00;;;30.60;40.20;;;;;;5092453;28;20047;-80
2022/08/06 10:14:59;;;;;;;0.35;0.10;;;30.80;41.40;;;;;;5090817;28;20502;-80
2022/08/06 10:17:26;;;;;;;0.00;0.00;;;31.00;39.70;;;;;;5082838;28;20502;-79
2022/08/06 10:20:16;;;;;;;0.00;0.00;;;31.00;35.70;;;;;;5085759;28;20394;-80
2022/08/06 10:22:58;;;;;;;0.00;0.00;;;30.90;33.40;;;;;;5086824;28;20062;-80
2022/08/06 10:37:11;;;;;;;0.00;0.00;;;31.20;33.60;;;;;;5101856;27;20439;-74
2022/08/06 10:39:46;;;;;;;0.35;0.35;;;31.30;37.00;;;;;;5100628;28;20039;-75
2022/08/06 10:42:14;;;;;;;0.00;0.00;;;31.20;35.80;;;;;;5100696;28;20020;-74
2022/08/06 10:44:40;;;;;;;0.13;0.08;;;31.20;35.70;;;;;;5099127;28;20063;-74
2022/08/06 10:47:07;;;;;;;0.00;0.00;;;31.10;36.70;;;;;;5099089;28;20016;-74
2022/08/06 10:49:34;;;;;;;0.00;0.00;;;31.00;37.10;;;;;;5098671;28;20548;-72
2022/08/06 10:52:00;;;;;;;2.35;0.13;;;31.00;37.70;;;;;;5104687;28;20110;-74
2022/08/06 10:54:27;;;;;;;0.00;0.00;;;31.00;37.20;;;;;;5104586;28;20575;-73
2022/08/06 10:56:55;;;;;;;0.00;0.00;;;30.90;37.10;;;;;;5104212;28;20057;-73
2022/08/06 10:59:21;;;;;;;0.20;0.13;;;30.90;37.70;;;;;;5099902;28;20032;-74
2022/08/06 11:02:01;;;;;;;0.00;0.00;;;30.80;37.50;;;;;;5098292;28;20032;-73
2022/08/06 11:04:53;;;;;;;0.47;0.13;;;30.80;38.70;;;;;;5106713;28;20082;-73
2022/08/06 11:07:54;;;;;;;0.00;0.00;;;30.70;38.90;;;;;;5095047;28;20642;-75
2022/08/06 11:10:58;;;;;;;0.00;0.00;;;30.70;39.10;;;;;;5098557;28;20434;-73
2022/08/06 11:13:24;;;;;;;0.00;0.00;;;30.70;39.60;;;;;;5105257;28;20028;-74
2022/08/06 11:15:51;;;;;;;0.00;0.00;;;30.70;39.40;;;;;;5104495;27;20069;-74
2022/08/06 11:18:18;;;;;;;0.00;0.00;;;30.60;38.40;;;;;;5101067;28;20501;-73
2022/08/06 11:20:47;;;;;;;0.20;0.20;;;30.70;38.30;;;;;;5104545;28;20039;-73
2022/08/06 11:23:13;;;;;;;0.00;0.00;;;30.70;39.00;;;;;;5097621;28;20028;-73
2022/08/06 11:25:45;;;;;;;0.43;0.43;;;30.60;39.00;;;;;;5100733;28;20126;-74
2022/08/06 11:28:16;;;;;;;0.00;0.00;;;30.70;39.30;;;;;;5098853;28;20032;-74
2022/08/06 11:30:45;;;;;;;0.00;0.00;;;30.70;39.90;;;;;;5105482;28;20073;-75
2022/08/06 11:33:14;;;;;;;1.17;0.75;;;30.80;39.80;;;;;;5098019;28;20502;-76
2022/08/06 11:35:41;;;;;;;0.00;0.00;;;30.80;40.60;;;;;;5099093;28;20075;-74
2022/08/06 11:38:10;;;;;;;0.00;0.00;;;30.50;40.20;;;;;;5088392;28;20064;-75
2022/08/06 11:40:57;;;;;;;0.40;0.22;;;30.40;41.20;;;;;;5090938;28;20466;-74
2022/08/06 11:43:48;;;;;;;0.00;0.00;;;30.40;41.20;;;;;;5085783;28;20020;-73
2022/08/06 11:46:28;;;;;;;0.00;0.00;;;30.30;42.20;;;;;;5084542;28;20078;-74
2022/08/06 11:49:02;;;;;;;0.00;0.00;;;30.40;42.30;;;;;;5089060;28;20445;-74
2022/08/06 11:51:41;;;;;;;0.43;0.43;;;30.30;42.40;;;;;;5087929;28;20032;-77
2022/08/06 11:54:20;;;;;;;0.25;0.13;;;30.30;42.90;;;;;;5087576;28;20125;-74
2022/08/06 11:57:01;;;;;;;0.28;0.28;;;30.20;42.80;;;;;;5086109;28;20027;-76
2022/08/06 11:59:34;;;;;;;0.17;0.17;;;30.30;43.30;;;;;;5083944;28;20957;-73
2022/08/06 12:02:03;;;;;;;0.70;0.70;;;30.20;44.60;;;;;;5086991;28;20081;-72
2022/08/06 12:04:49;;;;;;;0.00;0.00;;;30.10;45.30;;;;;;5084452;28;20028;-73
2022/08/06 12:07:25;;;;;;;0.00;0.00;;;30.10;45.80;;;;;;5082734;28;20074;-75
2022/08/06 12:10:09;;;;;;;0.00;0.00;;;30.10;45.20;;;;;;5085007;28;20031;-75
2022/08/06 12:12:45;;;;;;;0.00;0.00;;;30.20;45.00;;;;;;5087736;28;20125;-73
2022/08/06 12:15:16;;;;;;;0.00;0.00;;;30.30;44.30;;;;;;5087824;28;20031;-73
2022/08/06 12:17:55;;;;;;;0.00;0.00;;;30.10;44.40;;;;;;5089355;28;20175;-73
2022/08/06 12:20:39;;;;;;;0.00;0.00;;;30.10;45.10;;;;;;5079329;28;20774;-74
2022/08/06 12:23:10;;;;;;;0.00;0.00;;;29.70;45.50;;;;;;5077042;28;20054;-74
2022/08/06 12:25:39;;;;;;;0.38;0.38;;;29.80;45.40;;;;;;5077179;28;20031;-74
2022/08/06 12:28:07;;;;;;;0.00;0.00;;;29.80;45.00;;;;;;5075102;28;20114;-73
2022/08/06 12:30:54;;;;;;;0.00;0.00;;;29.80;45.00;;;;;;5080817;28;20039;-73
2022/08/06 12:33:22;;;;;;;0.00;0.00;;;29.80;45.30;;;;;;5080970;28;20482;-73
2022/08/06 12:35:58;;;;;;;0.00;0.00;;;30.00;44.90;;;;;;5084207;28;20066;-72
2022/08/06 12:38:27;;;;;;;0.10;0.10;;;30.00;45.30;;;;;;5082734;28;20127;-73
2022/08/06 12:40:59;;;;;;;0.00;0.00;;;30.10;44.60;;;;;;5078981;28;20032;-72
2022/08/06 12:43:26;;;;;;;0.00;0.00;;;30.10;44.40;;;;;;5076991;28;20057;-75
2022/08/06 12:46:00;;;;;;;0.00;0.00;;;30.20;44.20;;;;;;5082552;28;20056;-73
2022/08/06 12:48:27;;;;;;;0.60;0.60;;;29.90;44.90;;;;;;5080469;28;20023;-73
2022/08/06 12:51:02;;;;;;;0.00;0.00;;;29.90;45.00;;;;;;5080724;28;20022;-73
2022/08/06 12:53:28;;;;;;;0.00;0.00;;;30.10;44.90;;;;;;5080077;28;20055;-72
2022/08/06 12:55:55;;;;;;;0.00;0.00;;;30.10;45.00;;;;;;5076451;28;20101;-73
2022/08/06 12:58:34;;;;;;;0.35;0.35;;;30.10;45.20;;;;;;5081510;28;20028;-74
2022/08/06 13:01:02;;;;;;;0.00;0.00;;;30.10;45.40;;;;;;5082259;28;20028;-73
2022/08/06 13:03:31;;;;;;;0.20;0.20;;;30.10;45.40;;;;;;5082809;28;20032;-73
2022/08/06 13:06:01;;;;;;;0.00;0.00;;;30.20;45.70;;;;;;5080517;28;20123;-74
2022/08/06 13:08:28;;;;;;;0.00;0.00;;;30.10;45.60;;;;;;5080705;28;20042;-74
2022/08/06 13:10:56;;;;;;;0.00;0.00;;;30.10;45.80;;;;;;5078611;28;20092;-74
2022/08/06 13:13:54;;;;;;;0.00;0.00;;;30.10;45.70;;;;;;5081750;28;20029;-73
2022/08/06 13:16:20;;;;;;;0.00;0.00;;;30.10;46.10;;;;;;5082572;28;20592;-73
2022/08/06 13:19:14;;;;;;;0.00;0.00;;;30.10;45.80;;;;;;5080663;28;20478;-74
2022/08/06 13:21:42;;;;;;;0.00;0.00;;;30.00;45.80;;;;;;5081843;28;20028;-73
2022/08/06 13:24:09;;;;;;;0.10;0.10;;;30.00;46.10;;;;;;5083443;28;20167;-74
2022/08/06 13:26:49;;;;;;;0.00;0.00;;;30.00;46.10;;;;;;5081678;28;20039;-74